createdAt,value
2022-12-25T00:01:23.806Z,24.33
2022-12-25T00:03:51.966Z,21.40
2022-12-25T00:06:19.457Z,20.85
2022-12-25T00:08:46.853Z,22.25
2022-12-25T00:11:18.090Z,25.80
2022-12-25T00:13:46.074Z,20.40
2022-12-25T00:16:20.237Z,25.98
2022-12-25T00:18:48.087Z,25.67
2022-12-25T00:21:15.489Z,25.80
2022-12-25T00:23:43.387Z,22.95
2022-12-25T00:26:19.836Z,24.75
2022-12-25T00:28:47.239Z,23.25
2022-12-25T00:31:16.887Z,18.45
2022-12-25T00:33:45.788Z,22.40
2022-12-25T00:36:15.108Z,22.40
2022-12-25T00:38:43.485Z,16.90
2022-12-25T00:41:39.475Z,19.83
2022-12-25T00:44:08.720Z,19.48
2022-12-25T00:46:36.936Z,21.27
2022-12-25T00:49:04.489Z,23.08
2022-12-25T00:51:32.938Z,20.23
2022-12-25T00:54:00.189Z,20.38
2022-12-25T00:56:27.655Z,20.70
2022-12-25T00:58:55.549Z,24.60
2022-12-25T01:01:22.969Z,20.75
2022-12-25T01:03:50.348Z,22.55
2022-12-25T01:06:17.651Z,21.05
2022-12-25T01:09:04.972Z,18.13
2022-12-25T01:11:32.330Z,16.17
2022-12-25T01:13:59.689Z,20.83
2022-12-25T01:16:27.207Z,21.75
2022-12-25T01:18:54.771Z,21.35
2022-12-25T01:21:22.527Z,19.00
2022-12-25T01:23:51.372Z,23.00
2022-12-25T01:26:20.666Z,22.33
2022-12-25T01:28:48.998Z,21.45
2022-12-25T01:31:18.212Z,22.73
2022-12-25T01:33:46.846Z,21.63
2022-12-25T01:36:16.887Z,23.50
2022-12-25T01:38:45.213Z,21.25
2022-12-25T01:41:13.995Z,23.08
2022-12-25T01:44:03.267Z,20.05
2022-12-25T01:46:31.726Z,20.23
2022-12-25T01:49:05.493Z,17.90
2022-12-25T01:51:35.640Z,17.40
2022-12-25T01:54:07.153Z,20.20
2022-12-25T01:56:38.189Z,20.98
2022-12-25T01:59:08.044Z,23.63
2022-12-25T02:01:35.864Z,16.65
2022-12-25T02:04:12.903Z,18.65
2022-12-25T02:06:40.111Z,16.50
2022-12-25T02:09:07.625Z,16.42
2022-12-25T02:11:53.386Z,13.98
2022-12-25T02:14:21.456Z,19.67
2022-12-25T02:16:58.801Z,14.80
2022-12-25T02:19:35.442Z,18.10
2022-12-25T02:22:31.408Z,17.48
2022-12-25T02:25:16.195Z,15.38
2022-12-25T02:28:04.960Z,19.33
2022-12-25T02:30:39.132Z,19.20
2022-12-25T02:33:51.050Z,20.15
2022-12-25T02:36:24.527Z,16.55
2022-12-25T02:39:14.174Z,11.38
2022-12-25T02:41:45.698Z,18.65
2022-12-25T02:44:39.023Z,11.38
2022-12-25T02:47:28.158Z,14.35
2022-12-25T02:50:15.932Z,19.15
2022-12-25T02:53:04.164Z,19.42
2022-12-25T02:55:57.264Z,13.43
2022-12-25T02:58:45.083Z,12.85
2022-12-25T03:01:36.527Z,12.73
2022-12-25T03:04:26.977Z,15.48
2022-12-25T03:07:11.513Z,13.70
2022-12-25T03:10:05.703Z,12.23
2022-12-25T03:12:51.542Z,16.25
2022-12-25T03:15:38.877Z,10.60
2022-12-25T03:18:13.525Z,14.93
2022-12-25T03:23:50.074Z,11.50
2022-12-25T03:26:36.442Z,15.43
2022-12-25T03:29:04.117Z,14.02
2022-12-25T03:31:51.516Z,15.73
2022-12-25T03:35:00.280Z,15.13
2022-12-25T03:37:43.806Z,12.98
2022-12-25T03:40:42.522Z,11.38
2022-12-25T03:43:56.776Z,13.95
2022-12-25T03:46:47.656Z,10.35
2022-12-25T03:49:51.519Z,10.95
2022-12-25T03:52:38.937Z,14.10
2022-12-25T03:55:28.520Z,16.65
2022-12-25T03:58:14.122Z,16.63
2022-12-25T04:00:59.941Z,14.15
2022-12-25T04:03:45.863Z,13.93
2022-12-25T04:06:31.968Z,15.38
2022-12-25T04:09:18.056Z,14.52
2022-12-25T04:12:03.721Z,16.77
2022-12-25T04:14:49.833Z,15.52
2022-12-25T04:17:35.901Z,13.25
2022-12-25T04:20:21.758Z,15.25
2022-12-25T04:23:07.865Z,10.60
2022-12-25T04:25:53.532Z,14.82
2022-12-25T04:28:39.228Z,15.70
2022-12-25T04:31:25.132Z,9.38
2022-12-25T04:34:10.843Z,17.30
2022-12-25T04:36:38.096Z,15.23
2022-12-25T04:39:05.434Z,11.85
2022-12-25T04:41:32.649Z,9.63
2022-12-25T04:43:59.911Z,11.63
2022-12-25T04:46:27.209Z,8.50
2022-12-25T04:48:54.708Z,10.05
2022-12-25T04:51:24.115Z,11.88
2022-12-25T04:53:53.031Z,12.13
2022-12-25T04:56:20.732Z,12.75
2022-12-25T04:58:48.816Z,11.55
2022-12-25T05:01:16.384Z,10.13
2022-12-25T05:03:43.825Z,14.35
2022-12-25T05:06:11.229Z,11.63
2022-12-25T05:08:38.710Z,11.88
2022-12-25T05:11:11.844Z,16.63
2022-12-25T05:13:39.584Z,9.18
2022-12-25T05:16:16.130Z,12.63
2022-12-25T05:18:44.201Z,11.45
2022-12-25T05:21:12.606Z,16.40
2022-12-25T05:23:48.248Z,9.80
2022-12-25T05:26:21.066Z,13.55
2022-12-25T05:28:48.848Z,12.32
2022-12-25T05:31:17.309Z,14.35
2022-12-25T05:33:44.710Z,15.50
2022-12-25T05:36:12.925Z,15.27
2022-12-25T05:38:40.204Z,12.05
2022-12-25T05:41:07.502Z,16.77
2022-12-25T05:43:34.766Z,10.57
2022-12-25T05:46:09.986Z,14.68
2022-12-25T05:48:38.565Z,16.35
2022-12-25T05:51:07.065Z,12.27
2022-12-25T05:53:34.971Z,11.10
2022-12-25T05:56:04.719Z,11.55
2022-12-25T05:58:33.584Z,13.27
2022-12-25T06:01:01.213Z,13.10
2022-12-25T06:03:28.775Z,10.60
2022-12-25T06:05:56.212Z,11.70
2022-12-25T06:08:23.453Z,12.60
2022-12-25T06:10:50.726Z,13.15
2022-12-25T06:13:17.969Z,9.30
2022-12-25T06:15:45.235Z,13.68
2022-12-25T06:18:12.496Z,13.27
2022-12-25T06:20:42.766Z,12.43
2022-12-25T06:23:10.222Z,9.60
2022-12-25T06:25:40.485Z,11.27
2022-12-25T06:28:07.860Z,7.95
2022-12-25T06:30:35.146Z,12.32
2022-12-25T06:33:02.436Z,11.23
2022-12-25T06:35:29.660Z,12.82
2022-12-25T06:37:57.381Z,10.43
2022-12-25T06:40:24.811Z,17.23
2022-12-25T06:42:52.426Z,14.20
2022-12-25T06:45:19.676Z,10.40
2022-12-25T06:47:46.986Z,13.75
2022-12-25T06:50:15.061Z,12.18
2022-12-25T06:52:42.328Z,11.48
2022-12-25T06:55:10.109Z,9.68
2022-12-25T06:57:37.364Z,11.85
2022-12-25T07:00:05.711Z,7.57
2022-12-25T07:02:34.545Z,8.55
2022-12-25T07:05:03.512Z,11.45
2022-12-25T07:07:30.778Z,8.45
2022-12-25T07:09:58.038Z,9.57
2022-12-25T07:12:50.723Z,10.63
2022-12-25T07:15:17.981Z,9.07
2022-12-25T07:17:45.395Z,8.30
2022-12-25T07:20:12.679Z,8.32
2022-12-25T07:22:40.026Z,9.38
2022-12-25T07:25:07.638Z,9.85
2022-12-25T07:27:34.998Z,8.98
2022-12-25T07:30:02.273Z,8.10
2022-12-25T07:32:32.683Z,11.00
2022-12-25T07:35:00.107Z,9.93
2022-12-25T07:37:27.341Z,9.40
2022-12-25T07:39:54.704Z,10.32
2022-12-25T07:42:25.284Z,8.65
2022-12-25T07:44:54.856Z,7.90
2022-12-25T07:47:22.114Z,10.65
2022-12-25T07:49:49.408Z,9.45
2022-12-25T07:52:16.692Z,5.68
2022-12-25T07:54:43.927Z,9.75
2022-12-25T07:57:11.189Z,9.95
2022-12-25T07:59:38.732Z,8.45
2022-12-25T08:02:06.706Z,10.20
2022-12-25T08:04:34.190Z,11.07
2022-12-25T08:07:01.493Z,11.02
2022-12-25T08:09:28.883Z,8.57
2022-12-25T08:11:56.155Z,8.82
2022-12-25T08:14:23.432Z,9.90
2022-12-25T08:16:50.759Z,8.68
2022-12-25T08:19:18.227Z,9.02
2022-12-25T08:21:45.481Z,12.23
2022-12-25T08:24:12.756Z,10.93
2022-12-25T08:26:40.076Z,8.48
2022-12-25T08:29:07.495Z,6.78
2022-12-25T08:39:39.704Z,8.55
2022-12-25T08:42:06.359Z,6.88
2022-12-25T08:45:07.682Z,12.10
2022-12-25T08:47:35.052Z,10.93
2022-12-25T08:50:02.319Z,7.30
2022-12-25T08:52:29.888Z,12.55
2022-12-25T08:54:57.169Z,9.52
2022-12-25T08:57:24.492Z,9.85
2022-12-25T08:59:51.751Z,8.88
2022-12-25T09:02:19.316Z,8.70
2022-12-25T09:04:46.860Z,9.63
2022-12-25T09:07:14.210Z,8.63
2022-12-25T09:09:43.477Z,8.68
2022-12-25T09:12:10.796Z,10.77
2022-12-25T09:14:38.109Z,10.13
2022-12-25T09:17:05.452Z,12.00
2022-12-25T09:19:32.859Z,9.13
2022-12-25T09:22:00.396Z,11.68
2022-12-25T09:24:27.752Z,10.10
2022-12-25T09:26:55.067Z,8.70
2022-12-25T09:29:22.327Z,8.63
2022-12-25T09:31:49.623Z,12.23
2022-12-25T09:34:18.981Z,7.63
2022-12-25T09:36:46.507Z,7.15
2022-12-25T09:39:13.766Z,12.68
2022-12-25T09:41:55.123Z,9.93
2022-12-25T09:45:11.276Z,13.07
2022-12-25T09:50:11.263Z,12.57
2022-12-25T09:53:04.336Z,10.75
2022-12-25T09:55:36.125Z,10.70
2022-12-25T09:58:12.541Z,8.07
2022-12-25T10:00:49.418Z,12.90
2022-12-25T10:44:29.737Z,7.22
2022-12-25T10:46:59.314Z,8.57
2022-12-25T10:49:36.575Z,6.95
2022-12-25T10:52:18.380Z,8.50
2022-12-25T10:54:45.689Z,9.20
2022-12-25T10:57:18.381Z,7.55
2022-12-25T10:59:55.969Z,6.65
2022-12-25T11:02:29.881Z,10.50
2022-12-25T11:05:10.301Z,8.07
2022-12-25T11:07:54.226Z,11.63
2022-12-25T11:10:25.956Z,8.85
2022-12-25T11:12:53.961Z,9.23
2022-12-25T11:15:41.840Z,10.45
2022-12-25T11:18:22.818Z,7.22
2022-12-25T11:20:52.483Z,8.13
2022-12-25T11:23:22.337Z,9.32
2022-12-25T11:26:07.604Z,13.35
2022-12-25T11:28:38.106Z,9.93
2022-12-25T11:31:19.313Z,8.15
2022-12-25T11:33:52.947Z,8.52
2022-12-25T11:36:43.364Z,9.25
2022-12-25T11:39:27.682Z,8.73
2022-12-25T11:42:19.685Z,9.50
2022-12-25T11:44:53.336Z,8.00
2022-12-25T11:47:43.563Z,8.20
2022-12-25T11:50:20.382Z,8.18
2022-12-25T11:52:48.849Z,8.93
2022-12-25T11:55:35.669Z,7.88
2022-12-25T11:58:24.869Z,8.55
2022-12-25T12:00:57.177Z,8.57
2022-12-25T12:03:30.185Z,7.40
2022-12-25T12:06:29.300Z,8.38
2022-12-25T12:09:19.663Z,7.35
2022-12-25T12:12:01.647Z,7.72
2022-12-25T12:14:45.114Z,8.68
2022-12-25T12:17:14.637Z,9.68
2022-12-25T12:19:41.910Z,10.75
2022-12-25T12:22:18.558Z,9.02
2022-12-25T12:24:52.885Z,9.52
2022-12-25T12:27:51.954Z,12.18
2022-12-25T12:30:29.177Z,11.07
2022-12-25T12:32:59.864Z,14.13
2022-12-25T12:35:31.273Z,15.73
2022-12-25T12:38:17.185Z,14.20
2022-12-25T12:41:00.517Z,16.77
2022-12-25T12:43:40.531Z,14.18
2022-12-25T12:46:31.679Z,8.63
2022-12-25T12:49:20.295Z,9.32
2022-12-25T12:51:47.928Z,10.90
2022-12-25T12:54:27.790Z,11.13
2022-12-25T12:57:03.241Z,8.75
2022-12-25T12:59:40.867Z,9.20
2022-12-25T13:02:43.993Z,10.10
2022-12-25T13:05:35.709Z,9.23
2022-12-25T13:08:13.298Z,9.10
2022-12-25T13:11:02.103Z,9.70
2022-12-25T13:13:36.069Z,8.90
2022-12-25T13:16:04.110Z,10.35
2022-12-25T13:18:32.921Z,8.95
2022-12-25T13:21:05.357Z,10.23
2022-12-25T13:23:37.440Z,9.95
2022-12-25T13:26:25.126Z,10.35
2022-12-25T13:28:52.435Z,10.18
2022-12-25T13:31:25.297Z,9.52
2022-12-25T13:33:52.618Z,9.05
2022-12-25T13:36:20.025Z,11.73
2022-12-25T13:38:50.807Z,12.80
2022-12-25T13:41:46.065Z,13.88
2022-12-25T13:44:21.457Z,14.80
2022-12-25T13:46:48.920Z,13.68
2022-12-25T13:49:18.921Z,14.80
2022-12-25T13:51:46.967Z,17.85
2022-12-25T13:54:16.069Z,12.60
2022-12-25T13:56:51.616Z,11.20
2022-12-25T13:59:24.597Z,14.23
2022-12-25T14:02:00.040Z,15.73
2022-12-25T14:04:28.794Z,14.38
2022-12-25T14:06:56.281Z,14.25
2022-12-25T14:09:23.832Z,14.65
2022-12-25T14:11:52.543Z,15.48
2022-12-25T14:14:23.329Z,20.27
2022-12-25T14:16:53.601Z,17.67
2022-12-25T14:19:33.609Z,16.95
2022-12-25T14:22:32.074Z,21.63
2022-12-25T14:24:59.440Z,14.80
2022-12-25T14:27:30.308Z,16.13
2022-12-25T14:30:00.534Z,14.65
2022-12-25T14:32:30.797Z,18.20
2022-12-25T14:35:03.286Z,12.75
2022-12-25T14:37:32.790Z,14.57
2022-12-25T14:40:02.637Z,13.05
2022-12-25T14:42:33.276Z,12.98
2022-12-25T14:45:27.368Z,13.48
2022-12-25T14:47:57.109Z,15.00
2022-12-25T14:50:55.351Z,14.77
2022-12-25T14:53:33.459Z,14.20
2022-12-25T14:56:01.056Z,15.05
2022-12-25T14:58:31.191Z,10.73
2022-12-25T15:01:01.573Z,12.73
2022-12-25T15:03:49.030Z,12.40
2022-12-25T15:06:22.462Z,12.52
2022-12-25T15:09:01.440Z,15.70
2022-12-25T15:11:29.455Z,13.57
2022-12-25T15:13:56.729Z,12.32
2022-12-25T15:16:29.839Z,14.80
2022-12-25T15:18:57.480Z,12.10
2022-12-25T15:21:28.236Z,14.00
2022-12-25T15:23:57.229Z,11.73
2022-12-25T15:26:25.501Z,10.75
2022-12-25T15:28:52.905Z,13.15
2022-12-25T15:31:28.689Z,14.68
2022-12-25T15:33:58.126Z,14.75
2022-12-25T15:36:26.584Z,11.20
2022-12-25T15:38:54.218Z,14.15
2022-12-25T15:41:52.057Z,13.18
2022-12-25T15:44:19.704Z,12.27
2022-12-25T15:46:47.474Z,12.93
2022-12-25T15:49:15.614Z,10.63
2022-12-25T15:51:44.020Z,11.23
2022-12-25T15:54:11.820Z,12.10
2022-12-25T15:56:45.377Z,11.85
2022-12-25T15:59:14.344Z,11.25
2022-12-25T16:01:51.433Z,9.85
2022-12-25T16:04:19.658Z,13.23
2022-12-25T16:06:47.680Z,13.25
2022-12-25T16:09:16.458Z,13.30
2022-12-25T16:11:44.226Z,14.07
2022-12-25T16:14:11.598Z,10.93
2022-12-25T16:16:39.242Z,14.15
2022-12-25T16:19:07.157Z,11.70
2022-12-25T16:21:41.109Z,15.52
2022-12-25T16:24:08.792Z,17.80
2022-12-25T16:26:36.519Z,19.38
2022-12-25T16:29:07.221Z,17.00
2022-12-25T16:31:36.269Z,18.35
2022-12-25T16:34:04.461Z,15.20
2022-12-25T16:36:32.248Z,18.05
2022-12-25T16:38:59.566Z,15.95
2022-12-25T16:41:26.947Z,17.60
2022-12-25T16:43:54.229Z,15.23
2022-12-25T16:46:22.887Z,18.40
2022-12-25T16:48:50.349Z,17.10
2022-12-25T16:51:19.683Z,17.88
2022-12-25T16:53:47.358Z,20.63
2022-12-25T16:56:18.312Z,20.65
2022-12-25T16:58:46.882Z,16.13
2022-12-25T17:01:17.029Z,16.25
2022-12-25T17:03:45.454Z,16.08
2022-12-25T17:06:19.273Z,17.00
2022-12-25T17:08:47.635Z,18.60
2022-12-25T17:11:19.135Z,24.10
2022-12-25T17:13:47.980Z,25.20
2022-12-25T17:16:17.520Z,21.08
2022-12-25T17:18:45.401Z,18.88
2022-12-25T17:21:14.584Z,20.17
2022-12-25T17:23:42.974Z,17.27
2022-12-25T17:26:10.638Z,16.20
2022-12-25T17:28:38.023Z,17.85
2022-12-25T17:31:08.557Z,16.67
2022-12-25T17:33:37.437Z,16.10
2022-12-25T17:36:07.265Z,15.73
2022-12-25T17:38:35.193Z,22.00
2022-12-25T17:41:07.371Z,14.50
2022-12-25T17:43:37.146Z,17.77
2022-12-25T17:46:06.945Z,19.52
2022-12-25T17:48:36.162Z,16.02
2022-12-25T17:51:06.992Z,13.73
2022-12-25T17:53:39.277Z,16.10
2022-12-25T17:56:07.597Z,16.08
2022-12-25T17:58:35.111Z,13.65
2022-12-25T18:01:14.559Z,13.10
2022-12-25T18:03:42.965Z,12.43
2022-12-25T18:06:13.370Z,12.35
2022-12-25T18:08:41.936Z,15.00
2022-12-25T18:11:11.952Z,15.65
2022-12-25T18:13:40.477Z,16.58
2022-12-25T18:16:08.449Z,19.85
2022-12-25T18:18:36.119Z,26.65
2022-12-25T18:21:03.662Z,21.30
2022-12-25T18:23:31.041Z,19.30
2022-12-25T18:26:05.325Z,16.58
2022-12-25T18:28:33.208Z,14.65
2022-12-25T18:31:00.883Z,15.73
2022-12-25T18:33:28.284Z,16.05
2022-12-25T18:36:01.438Z,15.30
2022-12-25T18:38:28.866Z,16.30
2022-12-25T18:40:56.182Z,20.00
2022-12-25T18:43:53.583Z,18.23
2022-12-25T18:46:11.116Z,19.10
2022-12-25T18:48:38.694Z,19.35
2022-12-25T18:51:08.713Z,21.80
2022-12-25T18:53:36.240Z,17.52
2022-12-25T18:56:07.990Z,19.15
2022-12-25T18:58:37.934Z,17.77
2022-12-25T19:01:31.397Z,16.77
2022-12-25T19:04:04.525Z,17.67
2022-12-25T19:06:33.262Z,17.23
2022-12-25T19:09:05.555Z,14.40
2022-12-25T19:11:32.843Z,16.70
2022-12-25T19:14:00.148Z,19.63
2022-12-25T19:16:27.526Z,17.38
2022-12-25T19:18:54.965Z,13.82
2022-12-25T19:21:22.220Z,15.75
2022-12-25T19:23:49.544Z,13.27
2022-12-25T19:26:16.892Z,13.98
2022-12-25T19:28:44.274Z,11.10
2022-12-25T19:31:11.850Z,14.70
2022-12-25T19:33:41.669Z,13.02
2022-12-25T19:36:15.022Z,14.57
2022-12-25T19:38:43.577Z,15.70
2022-12-25T19:41:14.050Z,13.60
2022-12-25T19:43:42.720Z,10.77
2022-12-25T19:46:42.712Z,11.32
2022-12-25T19:49:13.441Z,11.02
2022-12-25T19:51:45.823Z,11.10
2022-12-25T19:54:15.459Z,15.45
2022-12-25T19:56:43.360Z,11.75
2022-12-25T19:59:12.020Z,9.10
2022-12-25T20:01:39.482Z,10.15
2022-12-25T20:04:09.576Z,9.13
2022-12-25T20:06:39.118Z,10.65
2022-12-25T20:09:10.622Z,10.57
2022-12-25T20:11:38.560Z,8.05
2022-12-25T20:14:07.287Z,9.10
2022-12-25T20:16:37.641Z,9.95
2022-12-25T20:19:05.853Z,8.10
2022-12-25T20:21:33.854Z,10.45
2022-12-25T20:24:01.454Z,8.00
2022-12-25T20:26:30.575Z,7.93
2022-12-25T20:28:58.807Z,9.35
2022-12-25T20:31:29.019Z,8.57
2022-12-25T20:33:58.850Z,8.70
2022-12-25T20:36:29.654Z,9.65
2022-12-25T20:39:02.002Z,11.20
2022-12-25T20:41:30.144Z,8.82
2022-12-25T20:43:57.814Z,9.48
2022-12-25T20:46:26.428Z,9.38
2022-12-25T20:48:54.303Z,8.93
2022-12-25T20:51:24.108Z,7.63
2022-12-25T20:53:51.963Z,6.80
2022-12-25T20:56:22.493Z,7.18
2022-12-25T20:58:57.964Z,13.15
2022-12-25T21:01:26.212Z,9.77
2022-12-25T21:03:54.043Z,7.65
2022-12-25T21:06:22.840Z,10.68
2022-12-25T21:08:50.162Z,10.30
2022-12-25T21:11:18.006Z,6.95
2022-12-25T21:13:46.220Z,9.60
2022-12-25T21:16:17.016Z,8.85
2022-12-25T21:18:44.592Z,7.82
2022-12-25T21:21:12.253Z,10.73
2022-12-25T21:23:40.248Z,9.38
2022-12-25T21:26:20.155Z,10.60
2022-12-25T21:28:48.797Z,7.72
2022-12-25T21:31:16.661Z,9.45
2022-12-25T21:33:53.607Z,7.55
2022-12-25T21:36:33.400Z,9.60
2022-12-25T21:39:04.417Z,9.73
2022-12-25T21:41:33.002Z,9.10
2022-12-25T21:44:00.497Z,13.70
2022-12-25T21:46:28.343Z,6.97
2022-12-25T21:48:55.963Z,7.57
2022-12-25T21:51:47.662Z,7.00
2022-12-25T21:54:16.359Z,9.65
2022-12-25T21:56:47.007Z,8.65
2022-12-25T21:59:20.645Z,6.80
2022-12-25T22:01:49.371Z,6.03
2022-12-25T22:04:18.379Z,8.10
2022-12-25T22:07:04.153Z,5.68
2022-12-25T22:09:31.717Z,5.90
2022-12-25T22:12:18.462Z,5.38
2022-12-25T22:14:55.288Z,5.93
2022-12-25T22:17:46.366Z,6.68
2022-12-25T22:20:22.988Z,6.20
2022-12-25T22:22:51.088Z,6.20
2022-12-25T22:25:18.891Z,5.32
2022-12-25T22:27:47.188Z,3.95
2022-12-25T22:30:20.916Z,4.32
2022-12-25T22:32:49.039Z,3.92
2022-12-25T22:35:16.918Z,3.83
2022-12-25T22:37:44.847Z,4.90
2022-12-25T22:40:15.793Z,3.40
2022-12-25T22:42:43.391Z,3.63
2022-12-25T22:45:11.721Z,3.35
2022-12-25T22:47:39.747Z,4.05
2022-12-25T22:50:07.568Z,3.67
2022-12-25T22:52:35.022Z,3.38
2022-12-25T22:55:03.106Z,4.93
2022-12-25T22:57:30.458Z,3.33
2022-12-25T22:59:57.769Z,3.30
2022-12-25T23:02:25.419Z,5.22
2022-12-25T23:04:53.519Z,3.50
2022-12-25T23:07:20.844Z,4.53
2022-12-25T23:09:48.118Z,4.18
2022-12-25T23:12:34.013Z,4.03
2022-12-25T23:15:01.282Z,4.22
2022-12-25T23:17:47.034Z,4.10
2022-12-25T23:20:33.641Z,5.45
2022-12-25T23:23:20.402Z,4.60
2022-12-25T23:26:06.078Z,4.40
2022-12-25T23:28:52.394Z,4.50
2022-12-25T23:31:25.265Z,3.92
2022-12-25T23:33:52.733Z,3.88
2022-12-25T23:36:20.125Z,4.63
2022-12-25T23:38:47.395Z,8.15
2022-12-25T23:41:14.633Z,4.47
2022-12-25T23:43:41.992Z,3.72
2022-12-25T23:46:09.392Z,5.18
2022-12-25T23:48:36.819Z,3.47
2022-12-25T23:51:06.188Z,4.72
2022-12-25T23:53:34.275Z,3.78
2022-12-25T23:56:02.223Z,3.30
2022-12-25T23:58:30.049Z,3.60
